Startpagina
METAR-TAF:

METAR-TAF

Vliegvelden :

Mauritius, Mauritius

breedte: 20-26S, lengte: 057-40E, hoogte: 55 m

Actueel weer

Dit bericht is 23 minuten geleden gemaakt, om 14:00 UTC
Wind 8 kt uit het zuidzuidoosten
Temperatuur 29°C
Vochtigheid 79%
Druk 1010 hPa
Zicht 10 km of meer
Gebroken wolken op 1500 ft
buien in de omgeving

METAR: FIMP 261400Z 16008KT 9999 VCSH BKN015 29/25 Q1010

Tijdstip: 18:23 (14:23 UTC)

Verwachting

Dit bericht is 3 uur en het 13 minuten geleden gemaakt, om 11:10 UTC
Verwachting geldig van 26 om 12 UTC tot 27 om 18 UTC
Wind 8 kt uit het zuidzuidoosten
Zicht 10 km of meer
Verspreide wolken op 1700 ft
Kans 30% :
Tijdelijke
van 26 om 15 UTC tot 27 om 04 UTC
Zicht: 7000 m
Weinig wolken op 1000 ft
Gebroken wolken op 1600 ft
Gebroken wolken op 5000 ft
lichte regenbuien
Wijzigt naar
van 26 om 18 UTC tot 26 om 20 UTC
Wind 15 kt uit het zuiden met uitschieters tot 25 kt

TAF: FIMP 261110Z 2612/2718 15008KT 9999 SCT017 PROB30 TEMPO 2615/2704 7000 -SHRA FEW010 BKN016 BKN050 BECMG 2618/2620 18015G25KT

Waarnemingen en weersverwachtingen van meer dan 4000 vliegvelden (METAR en TAF).

De beschikbare stations zijn de gele en rode punten op de kaart.

Ga met uw muis naar het station om de naam te zien.

Klik dan om waarnemingen en weersverwachtingen te zien.

kaart wijzigen: klik op de groene knoppen met een zwart kruis om in te zoomen, op de groene knop met een streepje om uit te zoomen of op de groene pijlen voor aangrenzende kaarten.


METAR-TAF: